DW5918 Weather Reports


Display with metric or nautical units.
time (UTC)temp
F
wind
direction
speed
MPH
gust
MPH
rain 1hr
in
rain 24hr
in
rain mn
in
humidity
%
barometer
mb
20200704000114 65 78 5.0 10.0 0.01 0.14 0.14 96 1011.2
20200703234614 65 59 7.0 12.0 0.06 0.14 0.14 97 1011.3
20200703233117 65 63 5.0 10.0 0.08 0.14 0.14 96 1011.0
20200703231557 65 57 6.0 11.0 0.08 0.14 0.14 96 1010.6
20200703230046 65 53 1.0 4.0 0.07 0.13 0.13 96 1010.5
20200703224628 65 57 1.0 6.0 0.02 0.08 0.08 96 1010.6
20200703223054 65 88 9.0 15.0 0.00 0.06 0.06 96 1010.6
20200703221604 65 71 10.0 14.0 0.00 0.06 0.06 96 1010.5
20200703220044 66 84 5.0 10.0 0.01 0.06 0.06 96 1010.5
20200703214601 66 76 3.0 8.0 0.03 0.06 0.06 96 1010.4
20200703213059 66 55 6.0 14.0 0.04 0.06 0.06 96 1010.4
20200703211533 66 76 7.0 13.0 0.06 0.06 0.06 96 1010.5
20200703210025 66 71 3.0 10.0 0.05 0.05 0.05 95 1010.2
20200703204539 67 66 5.0 10.0 0.03 0.03 0.03 95 1010.1
20200703203033 67 73 3.0 11.0 0.02 0.02 0.02 94 1010.2
20200703201540 68 84 7.0 16.0 0.00 0.00 0.00 93 1010.1
20200703200033 69 53 6.0 15.0 0.00 0.00 0.00 93 1010.0
20200703194542 69 67 4.0 13.0 0.00 0.00 0.00 93 1010.1
20200703191539 70 82 5.0 12.0 0.00 0.00 0.00 92 1009.8
20200703190020 71 79 4.0 17.0 0.00 0.00 0.00 89 1009.8
20200703184514 73 28 9.0 17.0 0.00 0.00 0.00 84 1009.8
20200703183009 75 61 3.0 6.0 0.00 0.00 0.00 80 1009.6
20200703181516 76 59 2.0 5.0 0.00 0.00 0.00 75 1009.6
20200703180017 77 266 0.0 4.0 0.00 0.00 0.00 75 1009.7
20200703174508 77 35 0.0 2.0 0.00 0.00 0.00 76 1009.7
20200703173010 77 320 0.0 3.0 0.00 0.00 0.00 77 1009.6
20200703171504 76 320 0.0 2.0 0.00 0.00 0.00 79 1009.8
20200703170004 76 320 0.0 0.0 0.00 0.00 0.00 80 1009.9
20200703164616 76 320 0.0 2.0 0.00 0.00 0.00 78 1009.9
20200703163204 76 320 0.0 2.0 0.00 0.00 0.00 78 1010.0
20200703161607 76 323 0.0 2.0 0.00 0.00 0.00 78 1010.0
20200703160155 76 323 0.0 2.0 0.00 0.00 0.00 76 1010.0
20200703154740 76 323 0.0 1.0 0.00 0.00 0.00 77 1010.1
20200703153250 77 329 0.0 2.0 0.00 0.00 0.00 76 1010.1
20200703151647 76 329 0.0 1.0 0.00 0.00 0.00 80 1010.1
20200703150154 74 329 0.0 0.0 0.00 0.00 0.00 81 1010.0
20200703144617 74 329 0.0 0.0 0.00 0.00 0.00 81 1010.1
20200703143147 74 329 0.0 0.0 0.00 0.00 0.00 81 1010.0
20200703141713 74 329 0.0 1.0 0.00 0.00 0.00 80 1010.1
20200703140118 74 329 0.0 2.0 0.00 0.00 0.00 82 1009.9
20200703134637 73 340 0.0 1.0 0.00 0.00 0.00 83 1009.8
20200703133136 72 26 0.0 2.0 0.00 0.00 0.00 85 1009.8
20200703131551 72 25 0.0 2.0 0.00 0.00 0.00 85 1009.9
20200703130100 72 25 0.0 1.0 0.00 0.00 0.00 86 1009.9
20200703124557 71 25 0.0 0.0 0.00 0.00 0.00 86 1009.8
20200703123116 71 25 0.0 1.0 0.00 0.00 0.00 86 1009.7
20200703120031 70 25 0.0 0.0 0.00 0.00 0.00 88 1009.4
20200703114623 70 25 0.0 0.0 0.00 0.00 0.00 89 1009.4
20200703113106 70 25 0.0 0.0 0.00 0.00 0.00 90 1009.4
20200703111526 69 25 0.0 0.0 0.00 0.00 0.00 89 1009.2
20200703110050 69 25 0.0 0.0 0.00 0.00 0.00 89 1009.1
20200703104621 69 25 0.0 0.0 0.00 0.00 0.00 89 1009.0
20200703103026 69 25 0.0 0.0 0.00 0.00 0.00 89 1008.9
20200703101538 69 25 0.0 0.0 0.00 0.00 0.00 89 1008.9
20200703100023 69 25 0.0 2.0 0.00 0.00 0.00 89 1008.7
20200703094530 69 25 0.0 0.0 0.00 0.00 0.00 89 1008.8
20200703093059 68 25 0.0 0.0 0.00 0.00 0.00 89 1008.9
20200703091521 68 25 0.0 0.0 0.00 0.00 0.00 89 1008.8
20200703090042 68 25 0.0 0.0 0.00 0.00 0.00 90 1008.6
20200703084526 68 25 0.0 0.0 0.00 0.00 0.00 89 1008.7
20200703083029 68 25 0.0 0.0 0.00 0.00 0.00 89 1008.5
20200703081530 68 25 0.0 0.0 0.00 0.00 0.00 88 1008.5
20200703080020 69 25 0.0 0.0 0.00 0.00 0.00 86 1008.3
20200703074536 69 25 0.0 0.0 0.00 0.00 0.00 85 1008.3
20200703073038 68 25 0.0 0.0 0.00 0.00 0.00 87 1008.3
20200703071516 69 25 0.0 0.0 0.00 0.00 0.00 87 1008.3
20200703070019 69 25 0.0 0.0 0.00 0.00 0.00 86 1008.3
20200703064515 69 25 0.0 0.0 0.00 0.00 0.00 85 1008.3
20200703063007 70 25 0.0 0.0 0.00 0.00 0.00 84 1008.3
20200703061501 70 25 0.0 3.0 0.00 0.00 0.00 85 1008.4
20200703054646 70 279 0.0 1.0 0.00 0.00 0.00 83 1008.5
20200703053222 70 279 0.0 1.0 0.00 0.00 0.00 83 1008.5
20200703051640 70 279 0.0 5.0 0.00 0.00 0.00 83 1008.5
20200703050100 70 284 0.0 2.0 0.00 0.00 0.00 84 1008.4
20200703044635 70 284 0.0 2.0 0.00 0.00 0.00 83 1008.3
20200703043143 71 284 0.0 1.0 0.00 0.00 0.00 82 1008.4
20200703041649 71 284 0.0 2.0 0.00 0.00 0.00 81 1008.5
20200703040109 71 284 0.0 0.0 0.00 0.00 0.00 81 1008.4
20200703034641 70 284 0.0 2.0 0.00 0.00 0.00 82 1008.4
20200703033143 70 284 0.0 2.0 0.00 0.00 0.00 81 1008.5
20200703031712 70 284 0.0 0.0 0.00 0.00 0.00 80 1008.6
20200703030134 70 284 0.0 0.0 0.00 0.00 0.00 80 1008.5
20200703024802 69 284 0.0 0.0 0.00 0.00 0.00 81 1008.6
20200703023106 69 284 0.0 0.0 0.00 0.00 0.00 81 1008.7
20200703021635 69 284 0.0 0.0 0.00 0.00 0.00 81 1008.7
20200703020215 69 284 0.0 0.0 0.00 0.00 0.00 80 1008.8
20200703014615 69 284 0.0 0.0 0.00 0.00 0.00 80 1008.7
20200703013213 69 284 0.0 0.0 0.00 0.00 0.00 80 1008.7
20200703011559 70 284 0.0 0.0 0.00 0.00 0.00 80 1008.5
20200703010139 70 284 0.0 1.0 0.00 0.00 0.00 79 1008.3
20200703004610 71 284 0.0 1.0 0.00 0.00 0.00 78 1008.4
20200703003053 71 284 0.0 3.0 0.00 0.00 0.00 77 1008.3
20200703001707 72 284 0.0 3.0 0.00 0.00 0.00 75 1008.2